Meteo Giornale » Osservazioni meteo Francia » Bale-Mulhouse

ore: 04:00 - Osservazioni Meteo Bale-Mulhouse
Lat. 47° 36' N Lon. 7° 31' E Alt. 270 metri s.l.m.

sereno Europe/Paris

12 °C

Sereno

Temp. 24 Ore

8 °C

24 °C

Nord

5.5 Km/h

Dew point 10 °C

Umidità 87 %

Visibilità  10 Km

Il sole sorge alle ore 07:19

Il sole tramonta alle ore 19:23

Data e Ora Cielo e Fenomeni T °C DP °C Um. % Pres. hPa Vis. km Vento km/h
Oggi h: 04:00 sereno Sereno 12 10 87 1018 10 N 5.5
Oggi h: 03:30 sereno Sereno 12 11 93 1018 10 S 9.3
Oggi h: 03:00 sereno Sereno 12 11 93 1018 10 S 7.4
Oggi h: 02:00 sereno Sereno 12 11 93 1018 10 S/SE 7.4
Oggi h: 01:30 sereno Sereno 13 12 93 1018 10 S 9.3
Oggi h: 01:00 sereno Sereno 13 12 93 1018 10 S/SE 9.3
Oggi h: 00:30 sereno Sereno 13 12 93 1019 10 S 7.4
Oggi h: 00:00 sereno Sereno 11 10 93 1018 10 S 7.4
Ieri h: 23:30 sereno Sereno 12 11 93 1019 10 S 7.4
Ieri h: 23:00 poco_nuvoloso Poco Nuvoloso 12 11 93 1019 10 N 3.7
Ieri h: 22:30 sereno Sereno 13 11 87 1018 10 N 1.8
Ieri h: 22:00 sereno Sereno 14 12 87 1019 10 SE 7.4
Ieri h: 21:30 sereno Sereno 14 12 87 1019 10 N 3.7
Ieri h: 21:00 sereno Sereno 15 13 87 1018 10 N 5.5
Ieri h: 20:30 sereno Sereno 16 13 82 1018 10 N 3.7
Ieri h: 20:00 sereno Sereno 17 14 82 1018 10 O/SO 9.3
Ieri h: 19:30 sereno Sereno 17 13 77 1017 10 N 5.5
Ieri h: 19:00 sereno Sereno 22 14 60 1017 10 N 3.7
Ieri h: 18:30 sereno Sereno 23 12 49 1017 10 N 5.5
Ieri h: 18:00 sereno Sereno 24 12 47 1017 10 N 5.5
Ieri h: 17:30 sereno Sereno 24 12 47 1018 10 N 5.5
Ieri h: 16:30 poco_nuvoloso Poco Nuvoloso 24 12 47 1018 10 O/NO 7.4
Ieri h: 16:00 poco_nuvoloso Poco Nuvoloso 24 11 43 1018 10 O 9.3
Ieri h: 14:30 poco_nuvoloso Poco Nuvoloso 23 11 46 1019 10 N 5.5
Ieri h: 14:00 poco_nuvoloso Poco Nuvoloso 23 11 46 1019 10 O/SO 7.4
Ieri h: 13:30 poco_nuvoloso Poco Nuvoloso 23 12 49 1020 10 NE 7.4
Ieri h: 13:00 poco_nuvoloso Poco Nuvoloso 22 13 56 1020 10 N 5.5
Ieri h: 12:30 poco_nuvoloso Poco Nuvoloso 21 13 60 1020 10 SE 7.4
Ieri h: 12:00 poco_nuvoloso Poco Nuvoloso 20 13 64 1020 10 SE 7.4
Ieri h: 11:30 poco_nuvoloso Poco Nuvoloso 20 13 64 1020 10 SE 7.4
Ieri h: 11:00 poco_nuvoloso Poco Nuvoloso 18 12 67 1020 10 E/SE 9.3
Ieri h: 10:30 poco_nuvoloso Poco Nuvoloso 17 13 77 1021 10 S 9.3
Ieri h: 09:30 poco_nuvoloso Poco Nuvoloso 15 12 82 1020 10 S/SE 11.1
Ieri h: 09:00 sereno Sereno 13 12 93 1020 10 N 5.5
Ieri h: 07:30 nebbia Nebbia a Strati 9 8 93 1020 8 N 3.7
Ieri h: 07:00 nebbia Nebbia a Strati 9 9 100 1020 8 S 9.3
Ieri h: 06:30 sereno Sereno 8 8 100 1020 8 N 5.5
Ieri h: 06:00 sereno Sereno 8 8 100 1020 4 N 3.7
Ieri h: 05:30 sereno Sereno 9 8 93 1020 10 N 1.8
Ieri h: 05:00 sereno Sereno 9 9 100 1020 7 N 1.8